sensor_id;sensor_type;location;lat;lon;timestamp;pressure;altitude;pressure_sealevel;temperature;humidity
74163;BME280;62515;52.758;5.076;2023-05-23T00:00:04;102056.34;;;12.50;100.00
74163;BME280;62515;52.758;5.076;2023-05-23T00:02:39;102060.63;;;12.53;100.00
74163;BME280;62515;52.758;5.076;2023-05-23T00:05:07;102057.75;;;12.42;100.00
74163;BME280;62515;52.758;5.076;2023-05-23T00:07:35;102022.28;;;12.40;100.00
74163;BME280;62515;52.758;5.076;2023-05-23T00:10:02;102068.09;;;12.32;100.00
74163;BME280;62515;52.758;5.076;2023-05-23T00:12:33;102073.28;;;12.35;100.00
74163;BME280;62515;52.758;5.076;2023-05-23T00:15:04;102058.47;;;12.30;100.00
74163;BME280;62515;52.758;5.076;2023-05-23T00:17:32;102066.28;;;12.33;100.00
74163;BME280;62515;52.758;5.076;2023-05-23T00:20:04;102068.97;;;12.33;100.00
74163;BME280;62515;52.758;5.076;2023-05-23T00:22:31;102059.16;;;12.33;100.00
74163;BME280;62515;52.758;5.076;2023-05-23T00:25:01;102070.13;;;12.43;100.00
74163;BME280;62515;52.758;5.076;2023-05-23T00:27:29;102064.97;;;12.40;100.00
74163;BME280;62515;52.758;5.076;2023-05-23T00:29:58;102075.09;;;12.49;100.00
74163;BME280;62515;52.758;5.076;2023-05-23T00:32:59;102063.41;;;12.51;100.00
74163;BME280;62515;52.758;5.076;2023-05-23T00:35:56;102072.06;;;12.55;100.00
74163;BME280;62515;52.758;5.076;2023-05-23T00:38:36;102069.41;;;12.55;100.00
74163;BME280;62515;52.758;5.076;2023-05-23T00:41:06;102076.47;;;12.56;100.00
74163;BME280;62515;52.758;5.076;2023-05-23T00:43:34;102076.19;;;12.61;100.00
74163;BME280;62515;52.758;5.076;2023-05-23T00:46:23;102074.03;;;12.67;100.00
74163;BME280;62515;52.758;5.076;2023-05-23T00:49:19;102071.53;;;12.64;100.00
74163;BME280;62515;52.758;5.076;2023-05-23T00:51:54;102079.53;;;12.64;100.00
74163;BME280;62515;52.758;5.076;2023-05-23T00:54:36;102086.88;;;12.61;100.00
74163;BME280;62515;52.758;5.076;2023-05-23T00:57:04;102085.25;;;12.58;100.00
74163;BME280;62515;52.758;5.076;2023-05-23T00:59:32;102089.06;;;12.54;100.00
74163;BME280;62515;52.758;5.076;2023-05-23T01:02:01;102098.19;;;12.50;100.00
74163;BME280;62515;52.758;5.076;2023-05-23T01:04:28;102080.94;;;12.41;100.00
74163;BME280;62515;52.758;5.076;2023-05-23T01:06:57;102079.88;;;12.44;100.00
74163;BME280;62515;52.758;5.076;2023-05-23T01:09:26;102088.38;;;12.50;100.00
74163;BME280;62515;52.758;5.076;2023-05-23T01:12:01;102083.91;;;12.51;100.00
74163;BME280;62515;52.758;5.076;2023-05-23T01:14:31;102091.13;;;12.49;100.00
74163;BME280;62515;52.758;5.076;2023-05-23T01:17:06;102069.97;;;12.46;100.00
74163;BME280;62515;52.758;5.076;2023-05-23T01:19:50;102076.66;;;12.53;100.00
74163;BME280;62515;52.758;5.076;2023-05-23T01:22:36;102079.50;;;12.50;100.00
74163;BME280;62515;52.758;5.076;2023-05-23T01:25:12;102068.59;;;12.39;100.00
74163;BME280;62515;52.758;5.076;2023-05-23T01:30:45;102091.31;;;12.46;100.00
74163;BME280;62515;52.758;5.076;2023-05-23T01:33:15;102086.09;;;12.44;100.00
74163;BME280;62515;52.758;5.076;2023-05-23T01:35:45;102085.59;;;12.52;100.00
74163;BME280;62515;52.758;5.076;2023-05-23T01:38:28;102073.59;;;12.45;100.00
74163;BME280;62515;52.758;5.076;2023-05-23T01:41:12;102085.59;;;12.52;100.00
74163;BME280;62515;52.758;5.076;2023-05-23T01:43:57;102081.31;;;12.49;100.00
74163;BME280;62515;52.758;5.076;2023-05-23T01:46:54;102082.28;;;12.48;100.00
74163;BME280;62515;52.758;5.076;2023-05-23T01:49:23;102091.13;;;12.49;100.00
74163;BME280;62515;52.758;5.076;2023-05-23T01:51:58;102096.47;;;12.49;100.00
74163;BME280;62515;52.758;5.076;2023-05-23T01:54:41;102104.09;;;12.41;100.00
74163;BME280;62515;52.758;5.076;2023-05-23T01:57:28;102116.50;;;12.42;100.00
74163;BME280;62515;52.758;5.076;2023-05-23T02:00:09;102105.81;;;12.42;100.00
74163;BME280;62515;52.758;5.076;2023-05-23T02:03:09;102108.63;;;12.39;100.00
74163;BME280;62515;52.758;5.076;2023-05-23T02:05:44;102124.50;;;12.42;100.00
74163;BME280;62515;52.758;5.076;2023-05-23T02:08:15;102113.81;;;12.42;100.00
74163;BME280;62515;52.758;5.076;2023-05-23T02:10:44;102116.56;;;12.40;100.00
74163;BME280;62515;52.758;5.076;2023-05-23T02:13:26;102125.72;;;12.36;100.00
74163;BME280;62515;52.758;5.076;2023-05-23T02:15:53;102132.78;;;12.37;100.00
74163;BME280;62515;52.758;5.076;2023-05-23T02:18:22;102115.03;;;12.36;100.00
74163;BME280;62515;52.758;5.076;2023-05-23T02:20:49;102135.94;;;12.44;100.00
74163;BME280;62515;52.758;5.076;2023-05-23T02:23:16;102129.41;;;12.34;100.00
74163;BME280;62515;52.758;5.076;2023-05-23T02:25:52;102133.03;;;12.33;100.00
74163;BME280;62515;52.758;5.076;2023-05-23T02:28:57;102122.53;;;12.30;100.00
74163;BME280;62515;52.758;5.076;2023-05-23T02:31:24;102131.34;;;12.32;100.00
74163;BME280;62515;52.758;5.076;2023-05-23T02:33:53;102131.16;;;12.35;100.00
74163;BME280;62515;52.758;5.076;2023-05-23T02:36:20;102138.03;;;12.23;100.00
74163;BME280;62515;52.758;5.076;2023-05-23T02:38:47;102139.84;;;12.23;100.00
74163;BME280;62515;52.758;5.076;2023-05-23T02:41:16;102143.56;;;12.20;100.00
74163;BME280;62515;52.758;5.076;2023-05-23T02:43:44;102144.44;;;12.21;100.00
74163;BME280;62515;52.758;5.076;2023-05-23T02:46:12;102151.00;;;12.15;100.00
74163;BME280;62515;52.758;5.076;2023-05-23T02:48:40;102151.06;;;12.14;100.00
74163;BME280;62515;52.758;5.076;2023-05-23T02:51:09;102140.84;;;12.06;100.00
74163;BME280;62515;52.758;5.076;2023-05-23T02:53:35;102147.31;;;12.02;100.00
74163;BME280;62515;52.758;5.076;2023-05-23T02:56:03;102153.69;;;11.99;100.00
74163;BME280;62515;52.758;5.076;2023-05-23T02:58:32;102162.63;;;11.98;100.00
74163;BME280;62515;52.758;5.076;2023-05-23T03:00:58;102157.63;;;11.92;100.00
74163;BME280;62515;52.758;5.076;2023-05-23T03:03:25;102155.56;;;11.82;100.00
74163;BME280;62515;52.758;5.076;2023-05-23T03:05:52;102163.91;;;11.91;100.00
74163;BME280;62515;52.758;5.076;2023-05-23T03:08:21;102163.72;;;11.94;100.00
74163;BME280;62515;52.758;5.076;2023-05-23T03:10:49;102163.03;;;11.91;100.00
74163;BME280;62515;52.758;5.076;2023-05-23T03:13:16;102160.88;;;11.82;100.00
74163;BME280;62515;52.758;5.076;2023-05-23T03:15:45;102164.25;;;11.85;100.00
74163;BME280;62515;52.758;5.076;2023-05-23T03:18:12;102158.28;;;11.80;100.00
74163;BME280;62515;52.758;5.076;2023-05-23T03:20:40;102163.38;;;11.85;100.00
74163;BME280;62515;52.758;5.076;2023-05-23T03:23:07;102170.78;;;11.80;100.00
74163;BME280;62515;52.758;5.076;2023-05-23T03:25:36;102155.69;;;11.63;100.00
74163;BME280;62515;52.758;5.076;2023-05-23T03:28:03;102175.47;;;11.59;100.00
74163;BME280;62515;52.758;5.076;2023-05-23T03:30:30;102168.72;;;11.52;100.00
74163;BME280;62515;52.758;5.076;2023-05-23T03:32:57;102178.97;;;11.44;100.00
74163;BME280;62515;52.758;5.076;2023-05-23T03:35:24;102153.47;;;11.38;100.00
74163;BME280;62515;52.758;5.076;2023-05-23T03:37:52;102165.97;;;11.38;100.00
74163;BME280;62515;52.758;5.076;2023-05-23T03:40:19;102171.91;;;11.43;100.00
74163;BME280;62515;52.758;5.076;2023-05-23T03:42:47;102183.00;;;11.51;100.00
74163;BME280;62515;52.758;5.076;2023-05-23T03:45:17;102192.03;;;11.48;100.00
74163;BME280;62515;52.758;5.076;2023-05-23T03:47:44;102195.50;;;11.50;100.00
74163;BME280;62515;52.758;5.076;2023-05-23T03:50:12;102193.94;;;11.46;100.00
74163;BME280;62515;52.758;5.076;2023-05-23T03:52:44;102181.81;;;11.41;100.00
74163;BME280;62515;52.758;5.076;2023-05-23T03:55:14;102199.94;;;11.34;100.00
74163;BME280;62515;52.758;5.076;2023-05-23T03:58:12;102168.50;;;11.24;100.00
74163;BME280;62515;52.758;5.076;2023-05-23T04:00:49;102202.97;;;11.27;100.00
74163;BME280;62515;52.758;5.076;2023-05-23T04:03:16;102189.28;;;11.17;100.00
74163;BME280;62515;52.758;5.076;2023-05-23T04:05:44;102199.00;;;11.18;100.00
74163;BME280;62515;52.758;5.076;2023-05-23T04:08:12;102217.25;;;11.26;100.00
74163;BME280;62515;52.758;5.076;2023-05-23T04:10:40;102214.25;;;11.32;100.00
74163;BME280;62515;52.758;5.076;2023-05-23T04:13:08;102219.84;;;11.27;100.00
74163;BME280;62515;52.758;5.076;2023-05-23T04:15:36;102217.94;;;11.29;100.00
74163;BME280;62515;52.758;5.076;2023-05-23T04:18:09;102226.34;;;11.22;100.00
74163;BME280;62515;52.758;5.076;2023-05-23T04:20:36;102223.06;;;11.17;100.00
74163;BME280;62515;52.758;5.076;2023-05-23T04:23:04;102213.97;;;11.03;100.00
74163;BME280;62515;52.758;5.076;2023-05-23T04:25:34;102227.19;;;11.22;100.00
74163;BME280;62515;52.758;5.076;2023-05-23T04:28:06;102236.53;;;11.31;100.00
74163;BME280;62515;52.758;5.076;2023-05-23T04:30:34;102238.56;;;11.26;100.00
74163;BME280;62515;52.758;5.076;2023-05-23T04:33:02;102227.84;;;11.10;100.00
74163;BME280;62515;52.758;5.076;2023-05-23T04:35:29;102236.72;;;11.11;100.00
74163;BME280;62515;52.758;5.076;2023-05-23T04:37:56;102246.97;;;11.18;100.00
74163;BME280;62515;52.758;5.076;2023-05-23T04:40:26;102260.38;;;11.17;100.00
74163;BME280;62515;52.758;5.076;2023-05-23T04:43:24;102247.53;;;11.25;100.00
74163;BME280;62515;52.758;5.076;2023-05-23T04:46:24;102260.03;;;11.23;100.00
74163;BME280;62515;52.758;5.076;2023-05-23T04:49:06;102270.69;;;11.23;100.00
74163;BME280;62515;52.758;5.076;2023-05-23T04:51:38;102251.28;;;11.21;100.00
74163;BME280;62515;52.758;5.076;2023-05-23T04:54:16;102251.97;;;11.24;100.00
74163;BME280;62515;52.758;5.076;2023-05-23T04:56:43;102262.53;;;11.43;100.00
74163;BME280;62515;52.758;5.076;2023-05-23T04:59:11;102257.53;;;11.37;100.00
74163;BME280;62515;52.758;5.076;2023-05-23T05:01:41;102274.94;;;11.44;100.00
74163;BME280;62515;52.758;5.076;2023-05-23T05:04:08;102266.13;;;11.42;100.00
74163;BME280;62515;52.758;5.076;2023-05-23T05:06:35;102256.13;;;11.30;100.00
74163;BME280;62515;52.758;5.076;2023-05-23T05:09:03;102274.16;;;11.25;100.00
74163;BME280;62515;52.758;5.076;2023-05-23T05:11:58;102285.81;;;11.22;100.00
74163;BME280;62515;52.758;5.076;2023-05-23T05:15:09;102280.44;;;11.24;100.00
74163;BME280;62515;52.758;5.076;2023-05-23T05:31:29;102311.38;;;11.09;100.00
74163;BME280;62515;52.758;5.076;2023-05-23T05:34:17;102313.19;;;11.09;100.00
74163;BME280;62515;52.758;5.076;2023-05-23T05:37:19;102314.53;;;11.34;100.00
74163;BME280;62515;52.758;5.076;2023-05-23T05:39:46;102320.63;;;11.36;100.00
74163;BME280;62515;52.758;5.076;2023-05-23T05:42:13;102318.34;;;11.63;100.00
74163;BME280;62515;52.758;5.076;2023-05-23T05:44:40;102318.97;;;11.51;100.00
74163;BME280;62515;52.758;5.076;2023-05-23T05:47:23;102316.06;;;11.90;100.00
74163;BME280;62515;52.758;5.076;2023-05-23T05:50:09;102323.97;;;11.91;100.00
74163;BME280;62515;52.758;5.076;2023-05-23T05:52:37;102317.31;;;12.16;100.00
74163;BME280;62515;52.758;5.076;2023-05-23T05:55:06;102302.75;;;12.21;100.00
74163;BME280;62515;52.758;5.076;2023-05-23T05:57:34;102314.03;;;12.26;100.00
74163;BME280;62515;52.758;5.076;2023-05-23T06:00:02;102328.41;;;12.24;100.00
74163;BME280;62515;52.758;5.076;2023-05-23T06:02:31;102324.00;;;12.23;100.00
74163;BME280;62515;52.758;5.076;2023-05-23T06:05:01;102328.06;;;12.30;100.00
74163;BME280;62515;52.758;5.076;2023-05-23T06:07:31;102322.38;;;12.36;100.00
74163;BME280;62515;52.758;5.076;2023-05-23T06:09:59;102330.84;;;12.44;100.00
74163;BME280;62515;52.758;5.076;2023-05-23T06:12:26;102333.88;;;12.38;100.00
74163;BME280;62515;52.758;5.076;2023-05-23T06:14:53;102335.19;;;12.14;100.00
74163;BME280;62515;52.758;5.076;2023-05-23T06:17:20;102342.25;;;11.99;100.00
74163;BME280;62515;52.758;5.076;2023-05-23T06:19:48;102331.94;;;12.09;100.00
74163;BME280;62515;52.758;5.076;2023-05-23T06:22:15;102339.13;;;12.06;100.00
74163;BME280;62515;52.758;5.076;2023-05-23T06:24:43;102329.59;;;12.02;100.00
74163;BME280;62515;52.758;5.076;2023-05-23T06:27:10;102350.31;;;11.97;100.00
74163;BME280;62515;52.758;5.076;2023-05-23T06:29:37;102345.06;;;11.96;100.00
74163;BME280;62515;52.758;5.076;2023-05-23T06:32:04;102342.31;;;11.97;100.00
74163;BME280;62515;52.758;5.076;2023-05-23T06:34:31;102349.22;;;12.01;100.00
74163;BME280;62515;52.758;5.076;2023-05-23T06:37:00;102341.28;;;12.00;100.00
74163;BME280;62515;52.758;5.076;2023-05-23T06:39:27;102336.03;;;11.98;100.00
74163;BME280;62515;52.758;5.076;2023-05-23T06:41:54;102345.88;;;12.14;100.00
74163;BME280;62515;52.758;5.076;2023-05-23T06:44:21;102351.50;;;12.25;100.00
74163;BME280;62515;52.758;5.076;2023-05-23T06:46:52;102355.09;;;12.24;100.00
74163;BME280;62515;52.758;5.076;2023-05-23T06:49:19;102342.63;;;12.40;100.00
74163;BME280;62515;52.758;5.076;2023-05-23T06:51:46;102350.41;;;12.60;100.00
74163;BME280;62515;52.758;5.076;2023-05-23T06:54:15;102358.19;;;12.65;100.00
74163;BME280;62515;52.758;5.076;2023-05-23T06:56:43;102363.25;;;12.69;100.00
74163;BME280;62515;52.758;5.076;2023-05-23T06:59:10;102371.41;;;12.35;100.00
74163;BME280;62515;52.758;5.076;2023-05-23T07:01:38;102364.34;;;12.65;100.00
74163;BME280;62515;52.758;5.076;2023-05-23T07:04:05;102360.84;;;12.80;100.00
74163;BME280;62515;52.758;5.076;2023-05-23T07:06:35;102363.50;;;12.80;100.00
74163;BME280;62515;52.758;5.076;2023-05-23T07:09:04;102351.00;;;12.49;100.00
74163;BME280;62515;52.758;5.076;2023-05-23T07:11:32;102347.97;;;12.24;100.00
74163;BME280;62515;52.758;5.076;2023-05-23T07:14:01;102367.25;;;12.29;100.00
74163;BME280;62515;52.758;5.076;2023-05-23T07:16:37;102367.88;;;12.50;100.00
74163;BME280;62515;52.758;5.076;2023-05-23T07:19:06;102373.50;;;12.77;100.00
74163;BME280;62515;52.758;5.076;2023-05-23T07:21:39;102377.22;;;12.90;100.00
74163;BME280;62515;52.758;5.076;2023-05-23T07:24:06;102372.44;;;12.95;100.00
74163;BME280;62515;52.758;5.076;2023-05-23T07:26:34;102378.91;;;13.06;100.00
74163;BME280;62515;52.758;5.076;2023-05-23T07:29:02;102372.06;;;12.71;100.00
74163;BME280;62515;52.758;5.076;2023-05-23T07:31:30;102377.19;;;12.43;100.00
74163;BME280;62515;52.758;5.076;2023-05-23T07:33:58;102381.16;;;13.14;100.00
74163;BME280;62515;52.758;5.076;2023-05-23T07:36:31;102389.28;;;13.72;100.00
74163;BME280;62515;52.758;5.076;2023-05-23T07:39:08;102390.38;;;13.84;100.00
74163;BME280;62515;52.758;5.076;2023-05-23T07:41:40;102392.69;;;13.46;100.00
74163;BME280;62515;52.758;5.076;2023-05-23T07:44:07;102404.72;;;13.23;100.00
74163;BME280;62515;52.758;5.076;2023-05-23T07:46:35;102406.53;;;13.52;100.00
74163;BME280;62515;52.758;5.076;2023-05-23T07:49:03;102404.09;;;14.07;100.00
74163;BME280;62515;52.758;5.076;2023-05-23T07:51:29;102392.13;;;14.13;100.00
74163;BME280;62515;52.758;5.076;2023-05-23T07:53:58;102400.25;;;13.97;100.00
74163;BME280;62515;52.758;5.076;2023-05-23T07:56:25;102397.06;;;13.47;100.00
74163;BME280;62515;52.758;5.076;2023-05-23T07:58:53;102405.38;;;13.27;100.00
74163;BME280;62515;52.758;5.076;2023-05-23T08:01:20;102397.56;;;13.97;100.00
74163;BME280;62515;52.758;5.076;2023-05-23T08:04:06;102401.00;;;14.84;100.00
74163;BME280;62515;52.758;5.076;2023-05-23T08:06:38;102392.81;;;14.45;100.00
74163;BME280;62515;52.758;5.076;2023-05-23T08:09:18;102406.16;;;14.02;100.00
74163;BME280;62515;52.758;5.076;2023-05-23T08:11:50;102413.09;;;13.77;100.00
74163;BME280;62515;52.758;5.076;2023-05-23T08:14:20;102408.56;;;13.63;100.00
74163;BME280;62515;52.758;5.076;2023-05-23T08:17:01;102398.66;;;13.65;100.00
74163;BME280;62515;52.758;5.076;2023-05-23T08:19:29;102395.38;;;14.60;100.00
74163;BME280;62515;52.758;5.076;2023-05-23T08:21:56;102399.72;;;14.63;100.00
74163;BME280;62515;52.758;5.076;2023-05-23T08:24:23;102404.66;;;14.27;100.00
74163;BME280;62515;52.758;5.076;2023-05-23T08:26:50;102419.34;;;13.32;100.00
74163;BME280;62515;52.758;5.076;2023-05-23T08:29:17;102407.88;;;13.59;100.00
74163;BME280;62515;52.758;5.076;2023-05-23T08:31:46;102404.78;;;13.06;100.00
74163;BME280;62515;52.758;5.076;2023-05-23T08:34:14;102415.38;;;12.92;100.00
74163;BME280;62515;52.758;5.076;2023-05-23T08:36:41;102414.00;;;12.85;100.00
74163;BME280;62515;52.758;5.076;2023-05-23T08:39:13;102415.47;;;13.06;100.00
74163;BME280;62515;52.758;5.076;2023-05-23T08:42:03;102432.50;;;13.80;100.00
74163;BME280;62515;52.758;5.076;2023-05-23T08:44:30;102420.63;;;14.14;100.00
74163;BME280;62515;52.758;5.076;2023-05-23T08:47:03;102423.66;;;13.94;100.00
74163;BME280;62515;52.758;5.076;2023-05-23T08:49:51;102426.50;;;14.49;100.00
74163;BME280;62515;52.758;5.076;2023-05-23T08:52:23;102415.38;;;14.69;100.00
74163;BME280;62515;52.758;5.076;2023-05-23T08:54:53;102421.28;;;14.74;100.00
74163;BME280;62515;52.758;5.076;2023-05-23T08:57:20;102439.59;;;13.81;100.00
74163;BME280;62515;52.758;5.076;2023-05-23T08:59:53;102440.56;;;14.38;100.00
74163;BME280;62515;52.758;5.076;2023-05-23T09:02:23;102441.09;;;13.85;100.00
74163;BME280;62515;52.758;5.076;2023-05-23T09:04:56;102437.13;;;13.92;100.00
74163;BME280;62515;52.758;5.076;2023-05-23T09:07:25;102444.03;;;14.10;100.00
74163;BME280;62515;52.758;5.076;2023-05-23T09:09:54;102437.53;;;14.14;100.00
74163;BME280;62515;52.758;5.076;2023-05-23T09:12:22;102441.09;;;13.85;100.00
74163;BME280;62515;52.758;5.076;2023-05-23T09:14:49;102453.09;;;14.52;100.00
74163;BME280;62515;52.758;5.076;2023-05-23T09:17:17;102452.50;;;14.61;100.00
74163;BME280;62515;52.758;5.076;2023-05-23T09:19:47;102448.97;;;14.60;100.00
74163;BME280;62515;52.758;5.076;2023-05-23T09:22:23;102460.00;;;14.56;100.00
74163;BME280;62515;52.758;5.076;2023-05-23T09:24:59;102454.13;;;14.78;100.00
74163;BME280;62515;52.758;5.076;2023-05-23T09:27:27;102458.09;;;14.28;100.00
74163;BME280;62515;52.758;5.076;2023-05-23T09:29:54;102456.22;;;13.86;100.00
74163;BME280;62515;52.758;5.076;2023-05-23T09:32:24;102460.31;;;14.07;100.00
74163;BME280;62515;52.758;5.076;2023-05-23T09:34:57;102451.69;;;14.31;100.00
74163;BME280;62515;52.758;5.076;2023-05-23T09:37:28;102464.88;;;14.49;100.00
74163;BME280;62515;52.758;5.076;2023-05-23T09:39:56;102457.47;;;13.81;100.00
74163;BME280;62515;52.758;5.076;2023-05-23T09:42:23;102464.69;;;14.08;100.00
74163;BME280;62515;52.758;5.076;2023-05-23T09:44:50;102463.66;;;14.25;100.00
74163;BME280;62515;52.758;5.076;2023-05-23T09:47:17;102451.84;;;14.72;100.00
74163;BME280;62515;52.758;5.076;2023-05-23T09:49:44;102462.03;;;16.00;100.00
74163;BME280;62515;52.758;5.076;2023-05-23T09:52:13;102468.19;;;16.40;100.00
74163;BME280;62515;52.758;5.076;2023-05-23T09:54:41;102468.88;;;14.85;100.00
74163;BME280;62515;52.758;5.076;2023-05-23T09:57:09;102480.38;;;14.58;100.00
74163;BME280;62515;52.758;5.076;2023-05-23T09:59:38;102484.28;;;14.39;100.00
74163;BME280;62515;52.758;5.076;2023-05-23T10:02:06;102474.13;;;14.44;100.00
74163;BME280;62515;52.758;5.076;2023-05-23T10:04:34;102473.34;;;14.70;100.00
74163;BME280;62515;52.758;5.076;2023-05-23T10:07:09;102465.78;;;14.77;100.00
74163;BME280;62515;52.758;5.076;2023-05-23T10:09:41;102476.72;;;14.59;100.00
74163;BME280;62515;52.758;5.076;2023-05-23T10:12:38;102487.25;;;14.04;100.00
74163;BME280;62515;52.758;5.076;2023-05-23T10:15:08;102481.69;;;13.48;100.00
74163;BME280;62515;52.758;5.076;2023-05-23T10:17:40;102480.53;;;13.68;100.00
74163;BME280;62515;52.758;5.076;2023-05-23T10:20:14;102477.31;;;14.06;100.00
74163;BME280;62515;52.758;5.076;2023-05-23T10:22:42;102484.66;;;14.03;100.00
74163;BME280;62515;52.758;5.076;2023-05-23T10:25:11;102491.06;;;14.00;100.00
74163;BME280;62515;52.758;5.076;2023-05-23T10:27:41;102493.19;;;14.09;100.00
74163;BME280;62515;52.758;5.076;2023-05-23T10:30:10;102483.88;;;14.45;100.00
74163;BME280;62515;52.758;5.076;2023-05-23T10:32:38;102488.69;;;14.82;100.00
74163;BME280;62515;52.758;5.076;2023-05-23T10:35:11;102493.63;;;15.02;100.00
74163;BME280;62515;52.758;5.076;2023-05-23T10:37:47;102495.28;;;14.91;100.00
74163;BME280;62515;52.758;5.076;2023-05-23T10:40:23;102482.72;;;15.32;100.00
74163;BME280;62515;52.758;5.076;2023-05-23T10:42:58;102492.66;;;15.03;100.00
74163;BME280;62515;52.758;5.076;2023-05-23T10:45:29;102502.19;;;14.81;100.00
74163;BME280;62515;52.758;5.076;2023-05-23T10:48:19;102504.56;;;14.57;100.00
74163;BME280;62515;52.758;5.076;2023-05-23T10:51:01;102508.88;;;14.15;100.00
74163;BME280;62515;52.758;5.076;2023-05-23T10:53:30;102503.44;;;14.75;100.00
74163;BME280;62515;52.758;5.076;2023-05-23T10:56:00;102502.56;;;14.75;100.00
74163;BME280;62515;52.758;5.076;2023-05-23T10:58:29;102492.31;;;14.81;100.00
74163;BME280;62515;52.758;5.076;2023-05-23T11:00:59;102511.16;;;14.51;100.00
74163;BME280;62515;52.758;5.076;2023-05-23T11:03:48;102521.59;;;14.42;100.00
74163;BME280;62515;52.758;5.076;2023-05-23T11:06:30;102511.00;;;14.25;100.00
74163;BME280;62515;52.758;5.076;2023-05-23T11:09:10;102510.50;;;15.04;100.00
74163;BME280;62515;52.758;5.076;2023-05-23T11:12:03;102511.84;;;16.44;100.00
74163;BME280;62515;52.758;5.076;2023-05-23T11:14:32;102515.47;;;16.30;100.00
74163;BME280;62515;52.758;5.076;2023-05-23T11:17:13;102513.72;;;15.09;100.00
74163;BME280;62515;52.758;5.076;2023-05-23T11:19:54;102518.88;;;15.12;100.00
74163;BME280;62515;52.758;5.076;2023-05-23T11:22:26;102515.44;;;15.65;100.00
74163;BME280;62515;52.758;5.076;2023-05-23T11:25:09;102517.50;;;16.14;100.00
74163;BME280;62515;52.758;5.076;2023-05-23T11:27:45;102504.53;;;15.81;100.00
74163;BME280;62515;52.758;5.076;2023-05-23T11:30:16;102506.88;;;17.13;100.00
74163;BME280;62515;52.758;5.076;2023-05-23T11:32:50;102511.16;;;18.57;100.00
74163;BME280;62515;52.758;5.076;2023-05-23T11:35:17;102520.34;;;16.50;100.00
74163;BME280;62515;52.758;5.076;2023-05-23T11:38:02;102515.47;;;16.17;100.00
74163;BME280;62515;52.758;5.076;2023-05-23T11:40:32;102522.19;;;14.61;100.00
74163;BME280;62515;52.758;5.076;2023-05-23T11:43:07;102516.94;;;14.30;100.00
74163;BME280;62515;52.758;5.076;2023-05-23T11:45:43;102532.88;;;14.47;100.00
74163;BME280;62515;52.758;5.076;2023-05-23T11:48:13;102522.47;;;14.85;100.00
74163;BME280;62515;52.758;5.076;2023-05-23T11:50:54;102528.66;;;14.13;100.00
74163;BME280;62515;52.758;5.076;2023-05-23T11:53:26;102524.16;;;15.69;100.00
74163;BME280;62515;52.758;5.076;2023-05-23T11:55:55;102523.94;;;15.72;100.00
74163;BME280;62515;52.758;5.076;2023-05-23T11:58:44;102528.75;;;17.20;100.00
74163;BME280;62515;52.758;5.076;2023-05-23T12:01:15;102515.34;;;17.44;100.00
74163;BME280;62515;52.758;5.076;2023-05-23T12:03:55;102528.38;;;16.25;100.00
74163;BME280;62515;52.758;5.076;2023-05-23T12:06:30;102529.13;;;15.88;100.00
74163;BME280;62515;52.758;5.076;2023-05-23T12:08:58;102531.41;;;15.26;100.00
74163;BME280;62515;52.758;5.076;2023-05-23T12:11:31;102528.69;;;14.85;100.00
74163;BME280;62515;52.758;5.076;2023-05-23T12:14:14;102533.59;;;16.01;100.00
74163;BME280;62515;52.758;5.076;2023-05-23T12:16:44;102534.38;;;15.77;100.00
74163;BME280;62515;52.758;5.076;2023-05-23T12:19:11;102541.44;;;14.82;100.00
74163;BME280;62515;52.758;5.076;2023-05-23T12:21:44;102536.63;;;15.70;100.00
74163;BME280;62515;52.758;5.076;2023-05-23T12:24:17;102536.34;;;17.02;100.00
74163;BME280;62515;52.758;5.076;2023-05-23T12:27:10;102541.28;;;15.93;100.00
74163;BME280;62515;52.758;5.076;2023-05-23T12:29:37;102540.31;;;16.46;100.00
74163;BME280;62515;52.758;5.076;2023-05-23T12:32:06;102537.78;;;15.11;100.00
74163;BME280;62515;52.758;5.076;2023-05-23T12:34:33;102530.13;;;15.05;100.00
74163;BME280;62515;52.758;5.076;2023-05-23T12:37:04;102530.81;;;15.49;100.00
74163;BME280;62515;52.758;5.076;2023-05-23T12:40:08;102525.16;;;16.33;100.00
74163;BME280;62515;52.758;5.076;2023-05-23T12:42:56;102538.94;;;16.41;100.00
74163;BME280;62515;52.758;5.076;2023-05-23T12:45:30;102528.25;;;17.15;100.00
74163;BME280;62515;52.758;5.076;2023-05-23T12:47:59;102543.75;;;15.29;100.00
74163;BME280;62515;52.758;5.076;2023-05-23T12:50:39;102556.06;;;14.90;100.00
74163;BME280;62515;52.758;5.076;2023-05-23T12:53:10;102551.06;;;15.12;100.00
74163;BME280;62515;52.758;5.076;2023-05-23T12:55:39;102554.53;;;15.14;100.00
74163;BME280;62515;52.758;5.076;2023-05-23T12:58:10;102535.88;;;16.20;100.00
74163;BME280;62515;52.758;5.076;2023-05-23T13:00:42;102551.41;;;15.63;100.00
74163;BME280;62515;52.758;5.076;2023-05-23T13:03:10;102559.91;;;15.14;100.00
74163;BME280;62515;52.758;5.076;2023-05-23T13:05:39;102553.00;;;15.92;100.00
74163;BME280;62515;52.758;5.076;2023-05-23T13:08:11;102507.59;;;15.62;100.00
74163;BME280;62515;52.758;5.076;2023-05-23T13:10:54;102562.38;;;14.89;100.00
74163;BME280;62515;52.758;5.076;2023-05-23T13:13:23;102551.47;;;15.21;100.00
74163;BME280;62515;52.758;5.076;2023-05-23T13:15:59;102567.53;;;14.64;100.00
74163;BME280;62515;52.758;5.076;2023-05-23T13:18:31;102568.03;;;14.71;100.00
74163;BME280;62515;52.758;5.076;2023-05-23T13:21:04;102559.78;;;14.74;100.00
74163;BME280;62515;52.758;5.076;2023-05-23T13:23:33;102555.50;;;14.71;100.00